sensor_id;sensor_type;location;lat;lon;timestamp;P1;durP1;ratioP1;P2;durP2;ratioP2
10643;SDS011;5370;50.132;8.626;2022-09-28T00:01:33;5.50;;;2.10;;
10643;SDS011;5370;50.132;8.626;2022-09-28T00:03:59;5.87;;;2.30;;
10643;SDS011;5370;50.132;8.626;2022-09-28T00:06:26;3.53;;;2.20;;
10643;SDS011;5370;50.132;8.626;2022-09-28T00:08:53;6.07;;;2.40;;
10643;SDS011;5370;50.132;8.626;2022-09-28T00:11:20;4.70;;;2.53;;
10643;SDS011;5370;50.132;8.626;2022-09-28T00:13:50;4.93;;;2.70;;
10643;SDS011;5370;50.132;8.626;2022-09-28T00:16:21;4.70;;;1.90;;
10643;SDS011;5370;50.132;8.626;2022-09-28T00:18:49;3.77;;;2.60;;
10643;SDS011;5370;50.132;8.626;2022-09-28T00:21:17;5.67;;;2.47;;
10643;SDS011;5370;50.132;8.626;2022-09-28T00:23:50;3.13;;;2.50;;
10643;SDS011;5370;50.132;8.626;2022-09-28T00:26:35;4.73;;;2.53;;
10643;SDS011;5370;50.132;8.626;2022-09-28T00:29:01;3.30;;;2.53;;
10643;SDS011;5370;50.132;8.626;2022-09-28T00:31:28;5.97;;;2.80;;
10643;SDS011;5370;50.132;8.626;2022-09-28T00:33:56;4.67;;;2.40;;
10643;SDS011;5370;50.132;8.626;2022-09-28T00:36:24;4.77;;;2.67;;
10643;SDS011;5370;50.132;8.626;2022-09-28T00:38:54;3.70;;;2.60;;
10643;SDS011;5370;50.132;8.626;2022-09-28T00:41:23;6.17;;;2.70;;
10643;SDS011;5370;50.132;8.626;2022-09-28T00:43:51;9.20;;;2.77;;
10643;SDS011;5370;50.132;8.626;2022-09-28T00:46:22;2.70;;;2.20;;
10643;SDS011;5370;50.132;8.626;2022-09-28T00:48:55;3.60;;;2.70;;
10643;SDS011;5370;50.132;8.626;2022-09-28T00:51:31;5.00;;;2.30;;
10643;SDS011;5370;50.132;8.626;2022-09-28T00:54:00;2.73;;;2.53;;
10643;SDS011;5370;50.132;8.626;2022-09-28T00:56:29;5.10;;;2.97;;
10643;SDS011;5370;50.132;8.626;2022-09-28T00:58:57;5.00;;;3.30;;
10643;SDS011;5370;50.132;8.626;2022-09-28T01:01:25;4.17;;;3.10;;
10643;SDS011;5370;50.132;8.626;2022-09-28T01:03:51;6.97;;;3.47;;
10643;SDS011;5370;50.132;8.626;2022-09-28T01:06:22;4.63;;;2.83;;
10643;SDS011;5370;50.132;8.626;2022-09-28T01:08:51;4.47;;;3.30;;
10643;SDS011;5370;50.132;8.626;2022-09-28T01:11:19;3.80;;;3.13;;
10643;SDS011;5370;50.132;8.626;2022-09-28T01:13:45;3.53;;;2.87;;
10643;SDS011;5370;50.132;8.626;2022-09-28T01:19:03;3.20;;;2.90;;
10643;SDS011;5370;50.132;8.626;2022-09-28T01:27:02;7.47;;;2.93;;
10643;SDS011;5370;50.132;8.626;2022-09-28T01:34:55;4.07;;;2.87;;
10643;SDS011;5370;50.132;8.626;2022-09-28T01:38:07;3.40;;;3.10;;
10643;SDS011;5370;50.132;8.626;2022-09-28T01:40:46;4.70;;;3.10;;
10643;SDS011;5370;50.132;8.626;2022-09-28T01:43:23;3.80;;;3.33;;
10643;SDS011;5370;50.132;8.626;2022-09-28T01:48:37;4.53;;;4.13;;
10643;SDS011;5370;50.132;8.626;2022-09-28T01:51:17;3.23;;;2.90;;
10643;SDS011;5370;50.132;8.626;2022-09-28T01:53:56;5.00;;;4.23;;
10643;SDS011;5370;50.132;8.626;2022-09-28T01:56:47;4.07;;;3.67;;
10643;SDS011;5370;50.132;8.626;2022-09-28T01:59:31;3.87;;;3.40;;
10643;SDS011;5370;50.132;8.626;2022-09-28T02:02:00;4.73;;;3.53;;
10643;SDS011;5370;50.132;8.626;2022-09-28T02:04:29;4.90;;;3.83;;
10643;SDS011;5370;50.132;8.626;2022-09-28T02:07:01;4.40;;;4.00;;
10643;SDS011;5370;50.132;8.626;2022-09-28T02:09:37;4.80;;;3.70;;
10643;SDS011;5370;50.132;8.626;2022-09-28T02:12:12;4.07;;;3.67;;
10643;SDS011;5370;50.132;8.626;2022-09-28T02:14:42;8.97;;;3.80;;
10643;SDS011;5370;50.132;8.626;2022-09-28T02:17:09;5.40;;;2.80;;
10643;SDS011;5370;50.132;8.626;2022-09-28T02:19:36;3.73;;;2.47;;
10643;SDS011;5370;50.132;8.626;2022-09-28T02:29:57;2.40;;;1.80;;
10643;SDS011;5370;50.132;8.626;2022-09-28T02:32:23;1.97;;;1.30;;
10643;SDS011;5370;50.132;8.626;2022-09-28T02:34:53;1.70;;;1.60;;
10643;SDS011;5370;50.132;8.626;2022-09-28T02:37:19;2.53;;;1.43;;
10643;SDS011;5370;50.132;8.626;2022-09-28T02:39:45;1.07;;;0.87;;
10643;SDS011;5370;50.132;8.626;2022-09-28T02:42:14;1.77;;;1.17;;
10643;SDS011;5370;50.132;8.626;2022-09-28T02:47:39;1.30;;;1.20;;
10643;SDS011;5370;50.132;8.626;2022-09-28T02:58:58;1.07;;;0.70;;
10643;SDS011;5370;50.132;8.626;2022-09-28T03:01:51;0.60;;;0.60;;
10643;SDS011;5370;50.132;8.626;2022-09-28T03:04:28;0.70;;;0.70;;
10643;SDS011;5370;50.132;8.626;2022-09-28T03:07:05;3.50;;;1.13;;
10643;SDS011;5370;50.132;8.626;2022-09-28T03:09:43;0.93;;;0.70;;
10643;SDS011;5370;50.132;8.626;2022-09-28T03:12:19;0.70;;;0.70;;
10643;SDS011;5370;50.132;8.626;2022-09-28T03:14:47;1.43;;;0.73;;
10643;SDS011;5370;50.132;8.626;2022-09-28T03:17:29;0.43;;;0.43;;
10643;SDS011;5370;50.132;8.626;2022-09-28T03:19:55;0.70;;;0.70;;
10643;SDS011;5370;50.132;8.626;2022-09-28T03:22:20;0.77;;;0.70;;
10643;SDS011;5370;50.132;8.626;2022-09-28T03:24:46;1.03;;;0.93;;
10643;SDS011;5370;50.132;8.626;2022-09-28T03:27:11;0.60;;;0.60;;
10643;SDS011;5370;50.132;8.626;2022-09-28T03:29:37;1.77;;;0.70;;
10643;SDS011;5370;50.132;8.626;2022-09-28T03:32:03;2.27;;;0.90;;
10643;SDS011;5370;50.132;8.626;2022-09-28T03:34:29;0.80;;;0.80;;
10643;SDS011;5370;50.132;8.626;2022-09-28T03:36:54;0.60;;;0.60;;
10643;SDS011;5370;50.132;8.626;2022-09-28T03:39:20;0.80;;;0.77;;
10643;SDS011;5370;50.132;8.626;2022-09-28T03:41:45;1.17;;;0.97;;
10643;SDS011;5370;50.132;8.626;2022-09-28T03:44:11;1.33;;;1.10;;
10643;SDS011;5370;50.132;8.626;2022-09-28T03:46:36;1.37;;;0.80;;
10643;SDS011;5370;50.132;8.626;2022-09-28T03:49:02;1.50;;;0.83;;
10643;SDS011;5370;50.132;8.626;2022-09-28T03:51:27;2.43;;;0.93;;
10643;SDS011;5370;50.132;8.626;2022-09-28T03:53:53;1.63;;;0.77;;
10643;SDS011;5370;50.132;8.626;2022-09-28T03:56:19;0.77;;;0.77;;
10643;SDS011;5370;50.132;8.626;2022-09-28T03:58:44;1.80;;;1.10;;
10643;SDS011;5370;50.132;8.626;2022-09-28T04:01:10;1.83;;;1.00;;
10643;SDS011;5370;50.132;8.626;2022-09-28T04:03:37;1.73;;;1.20;;
10643;SDS011;5370;50.132;8.626;2022-09-28T04:06:03;1.10;;;1.00;;
10643;SDS011;5370;50.132;8.626;2022-09-28T04:08:29;1.73;;;1.10;;
10643;SDS011;5370;50.132;8.626;2022-09-28T04:10:55;3.07;;;1.20;;
10643;SDS011;5370;50.132;8.626;2022-09-28T04:13:22;1.47;;;1.37;;
10643;SDS011;5370;50.132;8.626;2022-09-28T04:15:52;1.67;;;1.30;;
10643;SDS011;5370;50.132;8.626;2022-09-28T04:18:18;1.50;;;1.30;;
10643;SDS011;5370;50.132;8.626;2022-09-28T04:20:44;1.30;;;1.20;;
10643;SDS011;5370;50.132;8.626;2022-09-28T04:23:12;1.80;;;1.70;;
10643;SDS011;5370;50.132;8.626;2022-09-28T04:25:38;3.60;;;1.40;;
10643;SDS011;5370;50.132;8.626;2022-09-28T04:28:04;3.80;;;1.53;;
10643;SDS011;5370;50.132;8.626;2022-09-28T04:30:49;3.10;;;1.53;;
10643;SDS011;5370;50.132;8.626;2022-09-28T04:33:14;1.67;;;1.50;;
10643;SDS011;5370;50.132;8.626;2022-09-28T04:35:40;5.93;;;1.57;;
10643;SDS011;5370;50.132;8.626;2022-09-28T04:38:05;3.30;;;1.60;;
10643;SDS011;5370;50.132;8.626;2022-09-28T04:40:31;3.93;;;1.70;;
10643;SDS011;5370;50.132;8.626;2022-09-28T04:42:57;3.93;;;1.57;;
10643;SDS011;5370;50.132;8.626;2022-09-28T04:45:22;2.27;;;1.50;;
10643;SDS011;5370;50.132;8.626;2022-09-28T04:47:50;1.60;;;1.50;;
10643;SDS011;5370;50.132;8.626;2022-09-28T04:50:16;4.27;;;2.03;;
10643;SDS011;5370;50.132;8.626;2022-09-28T04:52:41;4.60;;;1.67;;
10643;SDS011;5370;50.132;8.626;2022-09-28T04:55:08;1.87;;;1.67;;
10643;SDS011;5370;50.132;8.626;2022-09-28T04:57:38;4.70;;;1.67;;
10643;SDS011;5370;50.132;8.626;2022-09-28T05:00:04;2.17;;;1.27;;
10643;SDS011;5370;50.132;8.626;2022-09-28T05:02:30;3.67;;;1.67;;
10643;SDS011;5370;50.132;8.626;2022-09-28T05:04:57;2.90;;;1.50;;
10643;SDS011;5370;50.132;8.626;2022-09-28T05:07:23;2.70;;;1.33;;
10643;SDS011;5370;50.132;8.626;2022-09-28T05:09:49;1.33;;;1.23;;
10643;SDS011;5370;50.132;8.626;2022-09-28T05:12:15;1.73;;;1.30;;
10643;SDS011;5370;50.132;8.626;2022-09-28T05:14:40;2.20;;;1.53;;
10643;SDS011;5370;50.132;8.626;2022-09-28T05:17:06;3.07;;;1.70;;
10643;SDS011;5370;50.132;8.626;2022-09-28T05:19:32;4.30;;;2.47;;
10643;SDS011;5370;50.132;8.626;2022-09-28T05:21:58;3.97;;;2.40;;
10643;SDS011;5370;50.132;8.626;2022-09-28T05:24:28;1.70;;;1.57;;
10643;SDS011;5370;50.132;8.626;2022-09-28T05:26:53;2.07;;;1.60;;
10643;SDS011;5370;50.132;8.626;2022-09-28T05:29:19;1.97;;;1.40;;
10643;SDS011;5370;50.132;8.626;2022-09-28T05:31:44;1.77;;;1.40;;
10643;SDS011;5370;50.132;8.626;2022-09-28T05:34:10;4.33;;;1.43;;
10643;SDS011;5370;50.132;8.626;2022-09-28T05:36:35;4.57;;;1.03;;
10643;SDS011;5370;50.132;8.626;2022-09-28T05:39:02;1.70;;;1.43;;
10643;SDS011;5370;50.132;8.626;2022-09-28T05:41:28;3.70;;;1.57;;
10643;SDS011;5370;50.132;8.626;2022-09-28T05:43:53;2.50;;;1.90;;
10643;SDS011;5370;50.132;8.626;2022-09-28T05:46:20;2.00;;;1.43;;
10643;SDS011;5370;50.132;8.626;2022-09-28T05:48:46;3.87;;;1.77;;
10643;SDS011;5370;50.132;8.626;2022-09-28T05:51:11;3.13;;;1.90;;
10643;SDS011;5370;50.132;8.626;2022-09-28T05:53:37;3.63;;;2.00;;
10643;SDS011;5370;50.132;8.626;2022-09-28T05:56:02;2.20;;;2.00;;
10643;SDS011;5370;50.132;8.626;2022-09-28T05:58:28;8.33;;;2.27;;
10643;SDS011;5370;50.132;8.626;2022-09-28T06:00:54;2.83;;;1.97;;
10643;SDS011;5370;50.132;8.626;2022-09-28T06:03:20;3.53;;;1.70;;
10643;SDS011;5370;50.132;8.626;2022-09-28T06:05:46;4.80;;;1.90;;
10643;SDS011;5370;50.132;8.626;2022-09-28T06:08:11;4.27;;;2.17;;
10643;SDS011;5370;50.132;8.626;2022-09-28T06:10:37;3.07;;;2.30;;
10643;SDS011;5370;50.132;8.626;2022-09-28T06:13:04;5.00;;;1.80;;
10643;SDS011;5370;50.132;8.626;2022-09-28T06:15:31;3.67;;;1.70;;
10643;SDS011;5370;50.132;8.626;2022-09-28T06:17:58;2.40;;;2.00;;
10643;SDS011;5370;50.132;8.626;2022-09-28T06:20:24;5.97;;;2.67;;
10643;SDS011;5370;50.132;8.626;2022-09-28T06:22:51;3.70;;;2.07;;
10643;SDS011;5370;50.132;8.626;2022-09-28T06:25:17;4.17;;;1.80;;
10643;SDS011;5370;50.132;8.626;2022-09-28T06:27:52;2.23;;;1.80;;
10643;SDS011;5370;50.132;8.626;2022-09-28T06:30:18;1.47;;;1.37;;
10643;SDS011;5370;50.132;8.626;2022-09-28T06:32:44;2.37;;;1.93;;
10643;SDS011;5370;50.132;8.626;2022-09-28T06:35:09;2.37;;;1.43;;
10643;SDS011;5370;50.132;8.626;2022-09-28T06:37:35;3.80;;;1.60;;
10643;SDS011;5370;50.132;8.626;2022-09-28T06:40:00;2.13;;;1.30;;
10643;SDS011;5370;50.132;8.626;2022-09-28T06:42:26;2.07;;;1.50;;
10643;SDS011;5370;50.132;8.626;2022-09-28T06:44:51;1.63;;;1.27;;
10643;SDS011;5370;50.132;8.626;2022-09-28T06:47:17;3.87;;;1.10;;
10643;SDS011;5370;50.132;8.626;2022-09-28T06:49:42;4.20;;;1.43;;
10643;SDS011;5370;50.132;8.626;2022-09-28T06:52:10;4.03;;;1.53;;
10643;SDS011;5370;50.132;8.626;2022-09-28T06:54:36;1.73;;;1.27;;
10643;SDS011;5370;50.132;8.626;2022-09-28T06:57:01;2.43;;;1.50;;
10643;SDS011;5370;50.132;8.626;2022-09-28T06:59:27;1.37;;;1.27;;
10643;SDS011;5370;50.132;8.626;2022-09-28T07:01:53;1.87;;;1.50;;
10643;SDS011;5370;50.132;8.626;2022-09-28T07:04:19;123.90;;;85.77;;
10643;SDS011;5370;50.132;8.626;2022-09-28T07:06:45;127.80;;;89.53;;
10643;SDS011;5370;50.132;8.626;2022-09-28T07:09:11;76.57;;;53.00;;
10643;SDS011;5370;50.132;8.626;2022-09-28T07:11:37;2.40;;;1.50;;
10643;SDS011;5370;50.132;8.626;2022-09-28T07:14:05;209.50;;;139.97;;
10643;SDS011;5370;50.132;8.626;2022-09-28T07:16:33;21.10;;;13.93;;
10643;SDS011;5370;50.132;8.626;2022-09-28T07:18:59;35.80;;;24.37;;
10643;SDS011;5370;50.132;8.626;2022-09-28T07:21:24;4.50;;;3.60;;
10643;SDS011;5370;50.132;8.626;2022-09-28T07:23:50;58.93;;;39.27;;
10643;SDS011;5370;50.132;8.626;2022-09-28T07:26:17;26.13;;;17.70;;
10643;SDS011;5370;50.132;8.626;2022-09-28T07:28:43;4.87;;;3.47;;
10643;SDS011;5370;50.132;8.626;2022-09-28T07:31:08;10.47;;;8.53;;
10643;SDS011;5370;50.132;8.626;2022-09-28T07:33:34;3.00;;;2.20;;
10643;SDS011;5370;50.132;8.626;2022-09-28T07:36:00;12.40;;;9.57;;
10643;SDS011;5370;50.132;8.626;2022-09-28T07:38:30;16.90;;;9.57;;
10643;SDS011;5370;50.132;8.626;2022-09-28T07:40:57;7.87;;;5.53;;
10643;SDS011;5370;50.132;8.626;2022-09-28T07:43:39;2.10;;;0.97;;
10643;SDS011;5370;50.132;8.626;2022-09-28T07:46:05;3.60;;;1.53;;
10643;SDS011;5370;50.132;8.626;2022-09-28T07:48:38;3.93;;;1.57;;
10643;SDS011;5370;50.132;8.626;2022-09-28T07:51:08;1.23;;;0.70;;
10643;SDS011;5370;50.132;8.626;2022-09-28T07:53:34;2.97;;;0.80;;
10643;SDS011;5370;50.132;8.626;2022-09-28T07:56:01;2.57;;;1.13;;
10643;SDS011;5370;50.132;8.626;2022-09-28T07:58:34;1.67;;;0.80;;
10643;SDS011;5370;50.132;8.626;2022-09-28T08:01:04;3.80;;;1.10;;
10643;SDS011;5370;50.132;8.626;2022-09-28T08:03:31;4.70;;;1.13;;
10643;SDS011;5370;50.132;8.626;2022-09-28T08:05:58;2.03;;;0.80;;
10643;SDS011;5370;50.132;8.626;2022-09-28T08:08:24;2.37;;;0.67;;
10643;SDS011;5370;50.132;8.626;2022-09-28T08:10:51;3.63;;;1.10;;
10643;SDS011;5370;50.132;8.626;2022-09-28T08:13:17;1.17;;;0.70;;
10643;SDS011;5370;50.132;8.626;2022-09-28T08:15:43;1.10;;;0.90;;
10643;SDS011;5370;50.132;8.626;2022-09-28T08:18:09;0.50;;;0.50;;
10643;SDS011;5370;50.132;8.626;2022-09-28T08:20:34;2.13;;;0.70;;
10643;SDS011;5370;50.132;8.626;2022-09-28T08:23:19;1.50;;;0.70;;
10643;SDS011;5370;50.132;8.626;2022-09-28T08:25:47;2.30;;;0.87;;
10643;SDS011;5370;50.132;8.626;2022-09-28T08:28:14;1.67;;;0.63;;
10643;SDS011;5370;50.132;8.626;2022-09-28T08:30:44;1.30;;;0.70;;
10643;SDS011;5370;50.132;8.626;2022-09-28T08:33:10;18.30;;;12.07;;
10643;SDS011;5370;50.132;8.626;2022-09-28T08:35:37;54.23;;;38.17;;
10643;SDS011;5370;50.132;8.626;2022-09-28T08:38:04;6.57;;;3.57;;
10643;SDS011;5370;50.132;8.626;2022-09-28T08:40:29;1.83;;;0.77;;
10643;SDS011;5370;50.132;8.626;2022-09-28T08:43:22;1.93;;;0.80;;
10643;SDS011;5370;50.132;8.626;2022-09-28T08:46:10;1.80;;;0.70;;
10643;SDS011;5370;50.132;8.626;2022-09-28T08:48:45;2.33;;;0.70;;
10643;SDS011;5370;50.132;8.626;2022-09-28T08:51:34;2.77;;;0.67;;
10643;SDS011;5370;50.132;8.626;2022-09-28T08:54:11;1.83;;;0.70;;
10643;SDS011;5370;50.132;8.626;2022-09-28T08:56:51;6.23;;;0.57;;
10643;SDS011;5370;50.132;8.626;2022-09-28T08:59:20;5.57;;;0.50;;
10643;SDS011;5370;50.132;8.626;2022-09-28T09:01:56;4.87;;;1.07;;
10643;SDS011;5370;50.132;8.626;2022-09-28T09:04:24;1.60;;;0.70;;
10643;SDS011;5370;50.132;8.626;2022-09-28T09:09:46;9.97;;;5.47;;
10643;SDS011;5370;50.132;8.626;2022-09-28T09:18:31;18.23;;;13.17;;
10643;SDS011;5370;50.132;8.626;2022-09-28T09:21:30;11.80;;;7.57;;
10643;SDS011;5370;50.132;8.626;2022-09-28T09:24:09;54.93;;;37.20;;
10643;SDS011;5370;50.132;8.626;2022-09-28T09:26:45;26.60;;;19.80;;
10643;SDS011;5370;50.132;8.626;2022-09-28T09:32:25;15.43;;;11.67;;
10643;SDS011;5370;50.132;8.626;2022-09-28T09:46:28;5.00;;;3.17;;
10643;SDS011;5370;50.132;8.626;2022-09-28T09:49:11;2.17;;;1.17;;
10643;SDS011;5370;50.132;8.626;2022-09-28T09:51:49;2.57;;;1.07;;
10643;SDS011;5370;50.132;8.626;2022-09-28T09:54:22;0.77;;;0.57;;
10643;SDS011;5370;50.132;8.626;2022-09-28T09:59:41;1.27;;;0.73;;
10643;SDS011;5370;50.132;8.626;2022-09-28T10:02:18;3.00;;;1.20;;
10643;SDS011;5370;50.132;8.626;2022-09-28T10:04:51;105.37;;;74.50;;
10643;SDS011;5370;50.132;8.626;2022-09-28T10:07:33;9.37;;;4.80;;
10643;SDS011;5370;50.132;8.626;2022-09-28T10:10:09;3.03;;;0.93;;
10643;SDS011;5370;50.132;8.626;2022-09-28T10:12:39;0.50;;;0.50;;
10643;SDS011;5370;50.132;8.626;2022-09-28T10:15:05;2.67;;;0.60;;
10643;SDS011;5370;50.132;8.626;2022-09-28T10:17:32;2.77;;;0.70;;
10643;SDS011;5370;50.132;8.626;2022-09-28T10:20:01;3.50;;;0.93;;
10643;SDS011;5370;50.132;8.626;2022-09-28T10:22:29;1.20;;;0.50;;
10643;SDS011;5370;50.132;8.626;2022-09-28T10:24:55;1.17;;;1.07;;
10643;SDS011;5370;50.132;8.626;2022-09-28T10:27:24;1.53;;;0.60;;
10643;SDS011;5370;50.132;8.626;2022-09-28T10:32:45;1.27;;;0.60;;
10643;SDS011;5370;50.132;8.626;2022-09-28T10:35:19;7.73;;;2.20;;
10643;SDS011;5370;50.132;8.626;2022-09-28T10:38:13;57.33;;;39.80;;
10643;SDS011;5370;50.132;8.626;2022-09-28T10:40:45;0.97;;;0.87;;
10643;SDS011;5370;50.132;8.626;2022-09-28T10:46:06;1.23;;;0.50;;
10643;SDS011;5370;50.132;8.626;2022-09-28T10:51:16;1.05;;;0.50;;
10643;SDS011;5370;50.132;8.626;2022-09-28T10:53:56;0.97;;;0.63;;
10643;SDS011;5370;50.132;8.626;2022-09-28T10:56:26;1.17;;;0.50;;
10643;SDS011;5370;50.132;8.626;2022-09-28T10:58:53;0.80;;;0.50;;
10643;SDS011;5370;50.132;8.626;2022-09-28T11:03:51;1.98;;;0.65;;
10643;SDS011;5370;50.132;8.626;2022-09-28T11:06:25;2.63;;;0.82;;
10643;SDS011;5370;50.132;8.626;2022-09-28T11:09:22;1.13;;;0.80;;
10643;SDS011;5370;50.132;8.626;2022-09-28T11:11:52;1.63;;;0.73;;
10643;SDS011;5370;50.132;8.626;2022-09-28T11:14:30;3.08;;;0.80;;
10643;SDS011;5370;50.132;8.626;2022-09-28T11:19:52;1.27;;;0.70;;
10643;SDS011;5370;50.132;8.626;2022-09-28T11:22:55;3.15;;;0.60;;
10643;SDS011;5370;50.132;8.626;2022-09-28T11:25:19;3.33;;;0.80;;
10643;SDS011;5370;50.132;8.626;2022-09-28T11:30:20;0.98;;;0.70;;
10643;SDS011;5370;50.132;8.626;2022-09-28T11:35:41;3.38;;;0.60;;
10643;SDS011;5370;50.132;8.626;2022-09-28T11:38:31;0.68;;;0.63;;
10643;SDS011;5370;50.132;8.626;2022-09-28T11:46:39;1.58;;;0.70;;
10643;SDS011;5370;50.132;8.626;2022-09-28T11:55:32;0.70;;;0.43;;
10643;SDS011;5370;50.132;8.626;2022-09-28T11:58:21;0.63;;;0.60;;
10643;SDS011;5370;50.132;8.626;2022-09-28T12:00:49;0.63;;;0.52;;
10643;SDS011;5370;50.132;8.626;2022-09-28T12:03:23;0.85;;;0.70;;
10643;SDS011;5370;50.132;8.626;2022-09-28T12:06:04;1.20;;;0.70;;
10643;SDS011;5370;50.132;8.626;2022-09-28T12:08:38;1.55;;;0.47;;
10643;SDS011;5370;50.132;8.626;2022-09-28T12:11:13;0.93;;;0.55;;
10643;SDS011;5370;50.132;8.626;2022-09-28T12:13:46;0.65;;;0.50;;
10643;SDS011;5370;50.132;8.626;2022-09-28T12:16:19;1.13;;;0.50;;
10643;SDS011;5370;50.132;8.626;2022-09-28T12:18:54;1.13;;;0.73;;
10643;SDS011;5370;50.132;8.626;2022-09-28T12:21:42;1.60;;;0.80;;
10643;SDS011;5370;50.132;8.626;2022-09-28T12:24:32;0.77;;;0.60;;
10643;SDS011;5370;50.132;8.626;2022-09-28T12:27:11;1.83;;;0.77;;
10643;SDS011;5370;50.132;8.626;2022-09-28T12:33:03;0.65;;;0.60;;
10643;SDS011;5370;50.132;8.626;2022-09-28T12:41:16;1.13;;;0.50;;
10643;SDS011;5370;50.132;8.626;2022-09-28T12:49:29;0.85;;;0.40;;
10643;SDS011;5370;50.132;8.626;2022-09-28T12:52:07;0.75;;;0.60;;
10643;SDS011;5370;50.132;8.626;2022-09-28T12:54:51;0.85;;;0.47;;
10643;SDS011;5370;50.132;8.626;2022-09-28T13:00:10;1.53;;;0.80;;
10643;SDS011;5370;50.132;8.626;2022-09-28T13:05:53;0.57;;;0.50;;
10643;SDS011;5370;50.132;8.626;2022-09-28T13:08:36;0.82;;;0.60;;
10643;SDS011;5370;50.132;8.626;2022-09-28T13:25:49;0.93;;;0.50;;
10643;SDS011;5370;50.132;8.626;2022-09-28T13:28:33;0.70;;;0.43;;
10643;SDS011;5370;50.132;8.626;2022-09-28T13:31:01;0.60;;;0.40;;
10643;SDS011;5370;50.132;8.626;2022-09-28T13:33:32;1.90;;;0.50;;
10643;SDS011;5370;50.132;8.626;2022-09-28T13:38:57;1.60;;;0.70;;
10643;SDS011;5370;50.132;8.626;2022-09-28T13:41:25;2.40;;;0.53;;
10643;SDS011;5370;50.132;8.626;2022-09-28T13:49:25;2.43;;;0.60;;
10643;SDS011;5370;50.132;8.626;2022-09-28T13:52:11;2.90;;;0.70;;
10643;SDS011;5370;50.132;8.626;2022-09-28T13:54:52;4.27;;;0.90;;
10643;SDS011;5370;50.132;8.626;2022-09-28T13:57:54;3.93;;;0.63;;
10643;SDS011;5370;50.132;8.626;2022-09-28T14:14:23;0.87;;;0.60;;
10643;SDS011;5370;50.132;8.626;2022-09-28T14:19:52;0.90;;;0.70;;
10643;SDS011;5370;50.132;8.626;2022-09-28T14:25:18;0.80;;;0.50;;
10643;SDS011;5370;50.132;8.626;2022-09-28T14:28:11;0.70;;;0.60;;
10643;SDS011;5370;50.132;8.626;2022-09-28T14:31:05;1.50;;;0.80;;
10643;SDS011;5370;50.132;8.626;2022-09-28T14:33:36;1.53;;;0.70;;
10643;SDS011;5370;50.132;8.626;2022-09-28T14:36:06;0.57;;;0.57;;
10643;SDS011;5370;50.132;8.626;2022-09-28T14:39:26;2.10;;;0.90;;
10643;SDS011;5370;50.132;8.626;2022-09-28T14:42:16;0.90;;;0.50;;
10643;SDS011;5370;50.132;8.626;2022-09-28T14:47:35;2.03;;;1.23;;
10643;SDS011;5370;50.132;8.626;2022-09-28T14:50:16;2.60;;;1.03;;
10643;SDS011;5370;50.132;8.626;2022-09-28T14:53:03;2.43;;;1.00;;
10643;SDS011;5370;50.132;8.626;2022-09-28T14:55:56;1.00;;;0.87;;
10643;SDS011;5370;50.132;8.626;2022-09-28T14:58:25;1.60;;;0.77;;
10643;SDS011;5370;50.132;8.626;2022-09-28T15:00:58;1.10;;;0.60;;
10643;SDS011;5370;50.132;8.626;2022-09-28T15:03:32;1.17;;;0.40;;
10643;SDS011;5370;50.132;8.626;2022-09-28T15:05:59;0.80;;;0.40;;
10643;SDS011;5370;50.132;8.626;2022-09-28T15:08:34;0.80;;;0.70;;
10643;SDS011;5370;50.132;8.626;2022-09-28T15:11:01;0.73;;;0.70;;
10643;SDS011;5370;50.132;8.626;2022-09-28T15:13:27;1.63;;;0.63;;
10643;SDS011;5370;50.132;8.626;2022-09-28T15:15:53;1.67;;;0.60;;
10643;SDS011;5370;50.132;8.626;2022-09-28T15:21:58;1.33;;;0.70;;
10643;SDS011;5370;50.132;8.626;2022-09-28T15:24:32;3.40;;;0.73;;
10643;SDS011;5370;50.132;8.626;2022-09-28T15:26:59;1.50;;;0.93;;
10643;SDS011;5370;50.132;8.626;2022-09-28T15:29:26;0.70;;;0.70;;
10643;SDS011;5370;50.132;8.626;2022-09-28T15:31:55;1.03;;;0.77;;
10643;SDS011;5370;50.132;8.626;2022-09-28T15:37:16;2.23;;;1.00;;
10643;SDS011;5370;50.132;8.626;2022-09-28T15:39:47;2.70;;;0.90;;
10643;SDS011;5370;50.132;8.626;2022-09-28T15:42:15;3.60;;;0.80;;
10643;SDS011;5370;50.132;8.626;2022-09-28T15:44:42;1.67;;;1.13;;
10643;SDS011;5370;50.132;8.626;2022-09-28T15:47:31;1.40;;;0.90;;
10643;SDS011;5370;50.132;8.626;2022-09-28T15:50:03;2.27;;;0.83;;
10643;SDS011;5370;50.132;8.626;2022-09-28T15:52:35;3.60;;;1.40;;
10643;SDS011;5370;50.132;8.626;2022-09-28T15:57:44;1.30;;;0.70;;
10643;SDS011;5370;50.132;8.626;2022-09-28T16:05:47;1.57;;;0.90;;
10643;SDS011;5370;50.132;8.626;2022-09-28T16:11:07;1.07;;;0.60;;
10643;SDS011;5370;50.132;8.626;2022-09-28T16:16:46;1.27;;;0.80;;
10643;SDS011;5370;50.132;8.626;2022-09-28T16:21:48;1.63;;;1.00;;
10643;SDS011;5370;50.132;8.626;2022-09-28T16:24:23;92.23;;;63.37;;
10643;SDS011;5370;50.132;8.626;2022-09-28T16:27:31;143.57;;;101.60;;
10643;SDS011;5370;50.132;8.626;2022-09-28T16:30:01;100.07;;;74.20;;
10643;SDS011;5370;50.132;8.626;2022-09-28T16:32:49;1.73;;;1.40;;
10643;SDS011;5370;50.132;8.626;2022-09-28T16:35:26;2.60;;;1.40;;
10643;SDS011;5370;50.132;8.626;2022-09-28T16:37:54;2.87;;;1.20;;
10643;SDS011;5370;50.132;8.626;2022-09-28T16:40:20;1.30;;;1.20;;
10643;SDS011;5370;50.132;8.626;2022-09-28T16:42:46;2.57;;;1.60;;
10643;SDS011;5370;50.132;8.626;2022-09-28T16:45:16;1.30;;;1.00;;
10643;SDS011;5370;50.132;8.626;2022-09-28T16:47:44;2.67;;;1.20;;
10643;SDS011;5370;50.132;8.626;2022-09-28T16:50:13;1.73;;;1.43;;
10643;SDS011;5370;50.132;8.626;2022-09-28T16:52:39;3.07;;;1.40;;
10643;SDS011;5370;50.132;8.626;2022-09-28T16:55:24;1.30;;;1.20;;
10643;SDS011;5370;50.132;8.626;2022-09-28T16:57:49;1.40;;;1.30;;
10643;SDS011;5370;50.132;8.626;2022-09-28T17:00:17;1.70;;;1.60;;
10643;SDS011;5370;50.132;8.626;2022-09-28T17:02:44;3.37;;;2.50;;
10643;SDS011;5370;50.132;8.626;2022-09-28T17:05:12;3.40;;;1.80;;
10643;SDS011;5370;50.132;8.626;2022-09-28T17:07:39;5.20;;;2.10;;
10643;SDS011;5370;50.132;8.626;2022-09-28T17:12:41;2.70;;;2.00;;
10643;SDS011;5370;50.132;8.626;2022-09-28T17:15:07;2.43;;;1.70;;
10643;SDS011;5370;50.132;8.626;2022-09-28T17:17:32;2.10;;;1.70;;
10643;SDS011;5370;50.132;8.626;2022-09-28T17:19:59;3.63;;;2.17;;
10643;SDS011;5370;50.132;8.626;2022-09-28T17:22:25;2.93;;;2.13;;
10643;SDS011;5370;50.132;8.626;2022-09-28T17:24:51;8.30;;;2.60;;
10643;SDS011;5370;50.132;8.626;2022-09-28T17:27:17;4.47;;;3.10;;
10643;SDS011;5370;50.132;8.626;2022-09-28T17:29:43;4.37;;;2.83;;
10643;SDS011;5370;50.132;8.626;2022-09-28T17:32:11;5.33;;;3.30;;
10643;SDS011;5370;50.132;8.626;2022-09-28T17:34:41;6.93;;;2.83;;
10643;SDS011;5370;50.132;8.626;2022-09-28T17:37:09;3.53;;;2.50;;
10643;SDS011;5370;50.132;8.626;2022-09-28T17:39:37;3.97;;;2.40;;
10643;SDS011;5370;50.132;8.626;2022-09-28T17:42:02;2.50;;;2.00;;
10643;SDS011;5370;50.132;8.626;2022-09-28T17:44:28;4.23;;;2.80;;
10643;SDS011;5370;50.132;8.626;2022-09-28T17:46:54;3.07;;;2.57;;
10643;SDS011;5370;50.132;8.626;2022-09-28T17:49:20;4.40;;;2.03;;
10643;SDS011;5370;50.132;8.626;2022-09-28T17:51:45;252.47;;;181.20;;
10643;SDS011;5370;50.132;8.626;2022-09-28T17:54:11;492.70;;;393.67;;
10643;SDS011;5370;50.132;8.626;2022-09-28T17:56:43;430.87;;;342.13;;
10643;SDS011;5370;50.132;8.626;2022-09-28T17:59:11;314.83;;;228.87;;
10643;SDS011;5370;50.132;8.626;2022-09-28T18:01:38;265.93;;;186.33;;
10643;SDS011;5370;50.132;8.626;2022-09-28T18:04:05;109.83;;;78.90;;
10643;SDS011;5370;50.132;8.626;2022-09-28T18:06:32;88.70;;;62.80;;
10643;SDS011;5370;50.132;8.626;2022-09-28T18:08:59;79.60;;;55.07;;
10643;SDS011;5370;50.132;8.626;2022-09-28T18:11:26;8.53;;;4.10;;
10643;SDS011;5370;50.132;8.626;2022-09-28T18:13:52;6.47;;;4.67;;
10643;SDS011;5370;50.132;8.626;2022-09-28T18:16:17;5.07;;;3.93;;
10643;SDS011;5370;50.132;8.626;2022-09-28T18:18:43;4.60;;;3.17;;
10643;SDS011;5370;50.132;8.626;2022-09-28T18:21:09;3.33;;;2.90;;
10643;SDS011;5370;50.132;8.626;2022-09-28T18:23:35;4.63;;;2.63;;
10643;SDS011;5370;50.132;8.626;2022-09-28T18:26:01;3.67;;;2.90;;